sensor_id;sensor_type;location;lat;lon;timestamp;P1;durP1;ratioP1;P2;durP2;ratioP2
33285;SDS011;19656;50.096;20.014;2022-09-27T00:00:38;21.70;;;16.30;;
33285;SDS011;19656;50.096;20.014;2022-09-27T00:06:08;23.20;;;15.70;;
33285;SDS011;19656;50.096;20.014;2022-09-27T00:16:35;22.30;;;16.10;;
33285;SDS011;19656;50.096;20.014;2022-09-27T00:21:41;32.60;;;15.20;;
33285;SDS011;19656;50.096;20.014;2022-09-27T00:26:47;23.40;;;15.50;;
33285;SDS011;19656;50.096;20.014;2022-09-27T00:31:51;26.30;;;14.40;;
33285;SDS011;19656;50.096;20.014;2022-09-27T00:36:57;11.70;;;10.50;;
33285;SDS011;19656;50.096;20.014;2022-09-27T00:42:01;12.40;;;10.80;;
33285;SDS011;19656;50.096;20.014;2022-09-27T00:52:29;12.90;;;11.00;;
33285;SDS011;19656;50.096;20.014;2022-09-27T00:57:39;16.40;;;12.60;;
33285;SDS011;19656;50.096;20.014;2022-09-27T01:02:46;17.10;;;11.50;;
33285;SDS011;19656;50.096;20.014;2022-09-27T01:07:54;13.90;;;10.60;;
33285;SDS011;19656;50.096;20.014;2022-09-27T01:18:30;14.20;;;10.30;;
33285;SDS011;19656;50.096;20.014;2022-09-27T01:23:50;12.20;;;9.60;;
33285;SDS011;19656;50.096;20.014;2022-09-27T01:29:35;11.50;;;10.30;;
33285;SDS011;19656;50.096;20.014;2022-09-27T01:35:09;13.90;;;9.90;;
33285;SDS011;19656;50.096;20.014;2022-09-27T01:40:29;12.80;;;10.00;;
33285;SDS011;19656;50.096;20.014;2022-09-27T01:46:10;13.00;;;9.70;;
33285;SDS011;19656;50.096;20.014;2022-09-27T01:51:39;10.90;;;9.30;;
33285;SDS011;19656;50.096;20.014;2022-09-27T01:56:50;12.50;;;10.10;;
33285;SDS011;19656;50.096;20.014;2022-09-27T02:02:03;12.30;;;9.70;;
33285;SDS011;19656;50.096;20.014;2022-09-27T02:07:41;11.20;;;8.90;;
33285;SDS011;19656;50.096;20.014;2022-09-27T02:13:14;9.60;;;8.20;;
33285;SDS011;19656;50.096;20.014;2022-09-27T02:18:29;10.70;;;9.00;;
33285;SDS011;19656;50.096;20.014;2022-09-27T02:23:43;11.00;;;9.10;;
33285;SDS011;19656;50.096;20.014;2022-09-27T02:28:58;10.10;;;8.40;;
33285;SDS011;19656;50.096;20.014;2022-09-27T02:34:23;9.70;;;8.00;;
33285;SDS011;19656;50.096;20.014;2022-09-27T02:39:30;10.10;;;8.10;;
33285;SDS011;19656;50.096;20.014;2022-09-27T02:44:39;12.90;;;8.10;;
33285;SDS011;19656;50.096;20.014;2022-09-27T02:56:03;10.70;;;8.40;;
33285;SDS011;19656;50.096;20.014;2022-09-27T03:01:48;10.80;;;8.30;;
33285;SDS011;19656;50.096;20.014;2022-09-27T03:07:11;9.60;;;8.50;;
33285;SDS011;19656;50.096;20.014;2022-09-27T03:12:18;12.40;;;8.90;;
33285;SDS011;19656;50.096;20.014;2022-09-27T03:17:30;9.80;;;8.20;;
33285;SDS011;19656;50.096;20.014;2022-09-27T03:23:03;12.60;;;7.60;;
33285;SDS011;19656;50.096;20.014;2022-09-27T03:28:08;8.10;;;7.20;;
33285;SDS011;19656;50.096;20.014;2022-09-27T03:33:14;18.80;;;7.20;;
33285;SDS011;19656;50.096;20.014;2022-09-27T03:38:23;8.80;;;7.30;;
33285;SDS011;19656;50.096;20.014;2022-09-27T03:43:29;9.40;;;7.50;;
33285;SDS011;19656;50.096;20.014;2022-09-27T03:48:37;9.90;;;7.70;;
33285;SDS011;19656;50.096;20.014;2022-09-27T03:53:43;9.40;;;7.20;;
33285;SDS011;19656;50.096;20.014;2022-09-27T03:58:47;9.00;;;7.30;;
33285;SDS011;19656;50.096;20.014;2022-09-27T04:09:07;9.30;;;7.70;;
33285;SDS011;19656;50.096;20.014;2022-09-27T04:14:31;12.20;;;7.10;;
33285;SDS011;19656;50.096;20.014;2022-09-27T04:19:56;18.10;;;8.60;;
33285;SDS011;19656;50.096;20.014;2022-09-27T04:25:00;12.90;;;7.80;;
33285;SDS011;19656;50.096;20.014;2022-09-27T04:30:12;10.50;;;7.30;;
33285;SDS011;19656;50.096;20.014;2022-09-27T04:35:38;18.00;;;6.50;;
33285;SDS011;19656;50.096;20.014;2022-09-27T04:41:01;10.40;;;7.20;;
33285;SDS011;19656;50.096;20.014;2022-09-27T04:46:08;10.80;;;7.40;;
33285;SDS011;19656;50.096;20.014;2022-09-27T04:51:12;12.10;;;8.20;;
33285;SDS011;19656;50.096;20.014;2022-09-27T04:56:20;11.00;;;7.10;;
33285;SDS011;19656;50.096;20.014;2022-09-27T05:01:26;16.20;;;9.00;;
33285;SDS011;19656;50.096;20.014;2022-09-27T05:06:34;13.50;;;8.40;;
33285;SDS011;19656;50.096;20.014;2022-09-27T05:11:42;12.00;;;8.90;;
33285;SDS011;19656;50.096;20.014;2022-09-27T05:17:06;14.00;;;8.80;;
33285;SDS011;19656;50.096;20.014;2022-09-27T05:22:38;15.10;;;9.00;;
33285;SDS011;19656;50.096;20.014;2022-09-27T05:27:44;13.60;;;8.70;;
33285;SDS011;19656;50.096;20.014;2022-09-27T05:32:49;15.00;;;9.30;;
33285;SDS011;19656;50.096;20.014;2022-09-27T05:38:00;14.70;;;10.00;;
33285;SDS011;19656;50.096;20.014;2022-09-27T05:43:07;37.20;;;15.00;;
33285;SDS011;19656;50.096;20.014;2022-09-27T05:48:11;35.90;;;17.20;;
33285;SDS011;19656;50.096;20.014;2022-09-27T05:53:29;54.00;;;28.90;;
33285;SDS011;19656;50.096;20.014;2022-09-27T05:58:36;28.60;;;15.00;;
33285;SDS011;19656;50.096;20.014;2022-09-27T06:03:52;27.60;;;14.20;;
33285;SDS011;19656;50.096;20.014;2022-09-27T06:09:15;28.50;;;14.10;;
33285;SDS011;19656;50.096;20.014;2022-09-27T06:14:20;21.60;;;12.10;;
33285;SDS011;19656;50.096;20.014;2022-09-27T06:19:32;23.30;;;11.80;;
33285;SDS011;19656;50.096;20.014;2022-09-27T06:24:37;17.10;;;10.60;;
33285;SDS011;19656;50.096;20.014;2022-09-27T06:29:45;22.40;;;10.80;;
33285;SDS011;19656;50.096;20.014;2022-09-27T06:34:58;20.10;;;12.40;;
33285;SDS011;19656;50.096;20.014;2022-09-27T06:40:01;16.40;;;10.00;;
33285;SDS011;19656;50.096;20.014;2022-09-27T06:45:23;15.00;;;9.90;;
33285;SDS011;19656;50.096;20.014;2022-09-27T06:50:55;15.20;;;9.10;;
33285;SDS011;19656;50.096;20.014;2022-09-27T06:55:59;13.60;;;9.40;;
33285;SDS011;19656;50.096;20.014;2022-09-27T07:01:14;14.20;;;9.20;;
33285;SDS011;19656;50.096;20.014;2022-09-27T07:06:37;12.80;;;9.90;;
33285;SDS011;19656;50.096;20.014;2022-09-27T07:11:51;15.90;;;11.20;;
33285;SDS011;19656;50.096;20.014;2022-09-27T07:16:56;9.50;;;11.30;;
33285;SDS011;19656;50.096;20.014;2022-09-27T07:22:01;19.00;;;11.70;;
33285;SDS011;19656;50.096;20.014;2022-09-27T07:27:04;16.20;;;10.70;;
33285;SDS011;19656;50.096;20.014;2022-09-27T07:32:08;14.90;;;10.90;;
33285;SDS011;19656;50.096;20.014;2022-09-27T07:37:12;17.50;;;12.30;;
33285;SDS011;19656;50.096;20.014;2022-09-27T07:42:15;17.60;;;12.10;;
33285;SDS011;19656;50.096;20.014;2022-09-27T07:47:23;15.70;;;11.90;;
33285;SDS011;19656;50.096;20.014;2022-09-27T07:52:46;17.10;;;12.50;;
33285;SDS011;19656;50.096;20.014;2022-09-27T07:58:19;16.00;;;10.90;;
33285;SDS011;19656;50.096;20.014;2022-09-27T08:03:25;14.80;;;10.40;;
33285;SDS011;19656;50.096;20.014;2022-09-27T08:08:29;15.00;;;10.20;;
33285;SDS011;19656;50.096;20.014;2022-09-27T08:13:33;15.50;;;9.70;;
33285;SDS011;19656;50.096;20.014;2022-09-27T08:18:36;15.40;;;11.00;;
33285;SDS011;19656;50.096;20.014;2022-09-27T08:29:12;23.00;;;11.80;;
33285;SDS011;19656;50.096;20.014;2022-09-27T08:34:23;21.40;;;12.70;;
33285;SDS011;19656;50.096;20.014;2022-09-27T08:39:27;29.10;;;15.00;;
33285;SDS011;19656;50.096;20.014;2022-09-27T08:44:47;25.30;;;15.90;;
33285;SDS011;19656;50.096;20.014;2022-09-27T08:50:27;48.40;;;34.80;;
33285;SDS011;19656;50.096;20.014;2022-09-27T08:55:37;20.90;;;13.30;;
33285;SDS011;19656;50.096;20.014;2022-09-27T09:00:52;25.80;;;16.40;;
33285;SDS011;19656;50.096;20.014;2022-09-27T09:06:04;29.00;;;19.90;;
33285;SDS011;19656;50.096;20.014;2022-09-27T09:11:28;27.50;;;18.80;;
33285;SDS011;19656;50.096;20.014;2022-09-27T09:34:02;24.10;;;13.40;;
33285;SDS011;19656;50.096;20.014;2022-09-27T09:45:27;17.80;;;11.30;;
33285;SDS011;19656;50.096;20.014;2022-09-27T09:50:39;21.20;;;12.20;;
33285;SDS011;19656;50.096;20.014;2022-09-27T09:55:49;15.50;;;10.50;;
33285;SDS011;19656;50.096;20.014;2022-09-27T10:01:10;16.90;;;10.10;;
33285;SDS011;19656;50.096;20.014;2022-09-27T10:06:21;22.60;;;12.90;;
33285;SDS011;19656;50.096;20.014;2022-09-27T10:11:36;20.10;;;10.80;;
33285;SDS011;19656;50.096;20.014;2022-09-27T10:16:58;12.20;;;9.10;;
33285;SDS011;19656;50.096;20.014;2022-09-27T10:22:13;13.50;;;9.30;;
33285;SDS011;19656;50.096;20.014;2022-09-27T10:27:23;12.10;;;8.50;;
33285;SDS011;19656;50.096;20.014;2022-09-27T10:32:30;10.10;;;6.90;;
33285;SDS011;19656;50.096;20.014;2022-09-27T10:38:23;10.10;;;6.80;;
33285;SDS011;19656;50.096;20.014;2022-09-27T10:43:38;9.90;;;6.30;;
33285;SDS011;19656;50.096;20.014;2022-09-27T10:49:07;7.90;;;6.60;;
33285;SDS011;19656;50.096;20.014;2022-09-27T10:54:26;9.40;;;5.70;;
33285;SDS011;19656;50.096;20.014;2022-09-27T10:59:37;13.20;;;6.60;;
33285;SDS011;19656;50.096;20.014;2022-09-27T11:04:55;11.30;;;5.50;;
33285;SDS011;19656;50.096;20.014;2022-09-27T11:10:32;9.20;;;5.50;;
33285;SDS011;19656;50.096;20.014;2022-09-27T11:15:55;11.20;;;6.90;;
33285;SDS011;19656;50.096;20.014;2022-09-27T11:21:05;9.70;;;5.60;;
33285;SDS011;19656;50.096;20.014;2022-09-27T11:47:51;6.80;;;6.00;;
33285;SDS011;19656;50.096;20.014;2022-09-27T12:04:01;6.80;;;4.60;;
33285;SDS011;19656;50.096;20.014;2022-09-27T12:09:15;7.10;;;5.10;;
33285;SDS011;19656;50.096;20.014;2022-09-27T12:14:44;8.90;;;5.20;;
33285;SDS011;19656;50.096;20.014;2022-09-27T12:19:55;9.50;;;4.50;;
33285;SDS011;19656;50.096;20.014;2022-09-27T12:25:18;4.70;;;3.50;;
33285;SDS011;19656;50.096;20.014;2022-09-27T12:30:39;5.70;;;3.20;;
33285;SDS011;19656;50.096;20.014;2022-09-27T12:35:53;4.60;;;3.00;;
33285;SDS011;19656;50.096;20.014;2022-09-27T12:41:03;5.40;;;2.70;;
33285;SDS011;19656;50.096;20.014;2022-09-27T12:46:56;8.90;;;3.40;;
33285;SDS011;19656;50.096;20.014;2022-09-27T12:52:10;3.60;;;2.60;;
33285;SDS011;19656;50.096;20.014;2022-09-27T13:02:56;9.20;;;3.90;;
33285;SDS011;19656;50.096;20.014;2022-09-27T13:13:37;4.30;;;2.30;;
33285;SDS011;19656;50.096;20.014;2022-09-27T13:18:54;2.80;;;2.50;;
33285;SDS011;19656;50.096;20.014;2022-09-27T13:24:16;5.50;;;2.80;;
33285;SDS011;19656;50.096;20.014;2022-09-27T13:29:41;4.10;;;2.80;;
33285;SDS011;19656;50.096;20.014;2022-09-27T13:34:54;9.00;;;3.50;;
33285;SDS011;19656;50.096;20.014;2022-09-27T13:45:31;5.40;;;3.30;;
33285;SDS011;19656;50.096;20.014;2022-09-27T13:55:49;5.30;;;2.70;;
33285;SDS011;19656;50.096;20.014;2022-09-27T14:06:40;11.50;;;3.50;;
33285;SDS011;19656;50.096;20.014;2022-09-27T14:11:51;5.20;;;3.90;;
33285;SDS011;19656;50.096;20.014;2022-09-27T14:16:59;4.50;;;3.10;;
33285;SDS011;19656;50.096;20.014;2022-09-27T14:22:07;5.00;;;2.30;;
33285;SDS011;19656;50.096;20.014;2022-09-27T14:27:31;6.30;;;2.20;;
33285;SDS011;19656;50.096;20.014;2022-09-27T14:33:01;5.40;;;2.90;;
33285;SDS011;19656;50.096;20.014;2022-09-27T14:38:15;4.30;;;2.50;;
33285;SDS011;19656;50.096;20.014;2022-09-27T14:43:44;4.60;;;2.50;;
33285;SDS011;19656;50.096;20.014;2022-09-27T14:48:50;3.90;;;2.30;;
33285;SDS011;19656;50.096;20.014;2022-09-27T14:53:55;6.80;;;2.70;;
33285;SDS011;19656;50.096;20.014;2022-09-27T14:59:03;3.60;;;2.40;;
33285;SDS011;19656;50.096;20.014;2022-09-27T15:04:13;3.20;;;2.70;;
33285;SDS011;19656;50.096;20.014;2022-09-27T15:09:17;4.50;;;3.20;;
33285;SDS011;19656;50.096;20.014;2022-09-27T15:14:20;5.50;;;2.60;;
33285;SDS011;19656;50.096;20.014;2022-09-27T15:19:26;3.80;;;2.50;;
33285;SDS011;19656;50.096;20.014;2022-09-27T15:25:04;3.30;;;2.60;;
33285;SDS011;19656;50.096;20.014;2022-09-27T15:30:25;3.30;;;2.50;;
33285;SDS011;19656;50.096;20.014;2022-09-27T15:35:33;3.30;;;2.70;;
33285;SDS011;19656;50.096;20.014;2022-09-27T15:41:20;6.50;;;2.70;;
33285;SDS011;19656;50.096;20.014;2022-09-27T15:51:37;5.50;;;2.20;;
33285;SDS011;19656;50.096;20.014;2022-09-27T15:56:49;4.10;;;2.20;;
33285;SDS011;19656;50.096;20.014;2022-09-27T16:01:59;3.80;;;2.30;;
33285;SDS011;19656;50.096;20.014;2022-09-27T16:07:10;2.90;;;1.80;;
33285;SDS011;19656;50.096;20.014;2022-09-27T16:12:15;3.30;;;2.40;;
33285;SDS011;19656;50.096;20.014;2022-09-27T16:17:17;2.30;;;1.80;;
33285;SDS011;19656;50.096;20.014;2022-09-27T16:22:20;4.20;;;2.00;;
33285;SDS011;19656;50.096;20.014;2022-09-27T16:27:24;3.50;;;1.80;;
33285;SDS011;19656;50.096;20.014;2022-09-27T16:32:29;2.20;;;1.70;;
33285;SDS011;19656;50.096;20.014;2022-09-27T16:37:33;2.80;;;1.80;;
33285;SDS011;19656;50.096;20.014;2022-09-27T16:42:36;3.00;;;1.70;;
33285;SDS011;19656;50.096;20.014;2022-09-27T16:47:39;2.60;;;1.80;;
33285;SDS011;19656;50.096;20.014;2022-09-27T16:52:43;2.50;;;1.70;;
33285;SDS011;19656;50.096;20.014;2022-09-27T16:57:51;3.40;;;1.70;;
33285;SDS011;19656;50.096;20.014;2022-09-27T17:02:54;2.10;;;1.70;;
33285;SDS011;19656;50.096;20.014;2022-09-27T17:07:57;2.60;;;1.80;;
33285;SDS011;19656;50.096;20.014;2022-09-27T17:13:00;3.40;;;1.80;;
33285;SDS011;19656;50.096;20.014;2022-09-27T17:18:04;2.90;;;2.20;;
33285;SDS011;19656;50.096;20.014;2022-09-27T17:23:07;4.70;;;3.00;;
33285;SDS011;19656;50.096;20.014;2022-09-27T17:28:10;7.80;;;3.90;;
33285;SDS011;19656;50.096;20.014;2022-09-27T17:33:13;9.90;;;4.40;;
33285;SDS011;19656;50.096;20.014;2022-09-27T17:38:16;11.90;;;7.50;;
33285;SDS011;19656;50.096;20.014;2022-09-27T17:43:19;8.80;;;5.90;;
33285;SDS011;19656;50.096;20.014;2022-09-27T17:48:23;10.20;;;5.90;;
33285;SDS011;19656;50.096;20.014;2022-09-27T17:53:44;12.40;;;6.00;;
33285;SDS011;19656;50.096;20.014;2022-09-27T17:58:48;8.00;;;5.40;;
33285;SDS011;19656;50.096;20.014;2022-09-27T18:03:53;8.20;;;6.50;;
33285;SDS011;19656;50.096;20.014;2022-09-27T18:09:00;12.30;;;6.70;;
33285;SDS011;19656;50.096;20.014;2022-09-27T18:14:04;9.10;;;6.70;;
33285;SDS011;19656;50.096;20.014;2022-09-27T18:19:09;10.00;;;6.00;;
33285;SDS011;19656;50.096;20.014;2022-09-27T18:24:17;8.50;;;6.10;;
33285;SDS011;19656;50.096;20.014;2022-09-27T18:29:20;72.90;;;47.60;;
33285;SDS011;19656;50.096;20.014;2022-09-27T18:34:24;10.50;;;5.60;;
33285;SDS011;19656;50.096;20.014;2022-09-27T18:39:27;8.30;;;5.70;;
33285;SDS011;19656;50.096;20.014;2022-09-27T18:44:30;9.30;;;5.70;;
33285;SDS011;19656;50.096;20.014;2022-09-27T18:49:34;7.60;;;5.90;;
33285;SDS011;19656;50.096;20.014;2022-09-27T18:54:37;9.10;;;6.40;;
33285;SDS011;19656;50.096;20.014;2022-09-27T18:59:42;9.80;;;7.30;;
33285;SDS011;19656;50.096;20.014;2022-09-27T19:04:47;8.90;;;6.80;;
33285;SDS011;19656;50.096;20.014;2022-09-27T19:09:49;11.10;;;7.00;;
33285;SDS011;19656;50.096;20.014;2022-09-27T19:14:53;7.80;;;6.50;;
33285;SDS011;19656;50.096;20.014;2022-09-27T19:19:57;8.50;;;6.90;;
33285;SDS011;19656;50.096;20.014;2022-09-27T19:25:00;9.90;;;7.80;;
33285;SDS011;19656;50.096;20.014;2022-09-27T19:30:04;10.70;;;8.00;;
33285;SDS011;19656;50.096;20.014;2022-09-27T19:35:07;12.30;;;8.50;;
33285;SDS011;19656;50.096;20.014;2022-09-27T19:40:11;14.80;;;8.90;;
33285;SDS011;19656;50.096;20.014;2022-09-27T19:45:14;13.00;;;9.00;;
33285;SDS011;19656;50.096;20.014;2022-09-27T19:50:17;13.00;;;8.90;;
33285;SDS011;19656;50.096;20.014;2022-09-27T19:55:20;13.60;;;8.90;;
33285;SDS011;19656;50.096;20.014;2022-09-27T20:00:23;13.90;;;8.60;;
33285;SDS011;19656;50.096;20.014;2022-09-27T20:05:26;12.90;;;8.50;;
33285;SDS011;19656;50.096;20.014;2022-09-27T20:10:29;11.30;;;7.90;;
33285;SDS011;19656;50.096;20.014;2022-09-27T20:15:32;11.90;;;7.90;;
33285;SDS011;19656;50.096;20.014;2022-09-27T20:20:35;12.00;;;7.90;;
33285;SDS011;19656;50.096;20.014;2022-09-27T20:25:38;13.60;;;7.40;;
33285;SDS011;19656;50.096;20.014;2022-09-27T20:30:53;11.50;;;7.10;;
33285;SDS011;19656;50.096;20.014;2022-09-27T20:36:04;11.90;;;8.10;;
33285;SDS011;19656;50.096;20.014;2022-09-27T20:41:07;14.20;;;8.10;;
33285;SDS011;19656;50.096;20.014;2022-09-27T20:46:12;14.60;;;8.80;;
33285;SDS011;19656;50.096;20.014;2022-09-27T20:51:20;13.10;;;8.60;;
33285;SDS011;19656;50.096;20.014;2022-09-27T20:56:25;13.40;;;8.00;;
33285;SDS011;19656;50.096;20.014;2022-09-27T21:01:31;14.40;;;8.60;;
33285;SDS011;19656;50.096;20.014;2022-09-27T21:06:35;13.00;;;8.60;;
33285;SDS011;19656;50.096;20.014;2022-09-27T21:11:38;12.90;;;7.90;;
33285;SDS011;19656;50.096;20.014;2022-09-27T21:16:41;11.70;;;8.50;;
33285;SDS011;19656;50.096;20.014;2022-09-27T21:21:43;12.80;;;8.90;;
33285;SDS011;19656;50.096;20.014;2022-09-27T21:26:47;12.70;;;8.30;;
33285;SDS011;19656;50.096;20.014;2022-09-27T21:31:49;12.00;;;8.40;;
33285;SDS011;19656;50.096;20.014;2022-09-27T21:36:52;12.00;;;8.20;;
33285;SDS011;19656;50.096;20.014;2022-09-27T21:41:55;12.50;;;8.30;;
33285;SDS011;19656;50.096;20.014;2022-09-27T21:46:58;12.30;;;7.90;;
33285;SDS011;19656;50.096;20.014;2022-09-27T21:52:01;14.40;;;8.20;;
33285;SDS011;19656;50.096;20.014;2022-09-27T21:57:04;14.40;;;8.90;;
33285;SDS011;19656;50.096;20.014;2022-09-27T22:02:07;14.30;;;9.20;;
33285;SDS011;19656;50.096;20.014;2022-09-27T22:07:11;15.80;;;9.60;;
33285;SDS011;19656;50.096;20.014;2022-09-27T22:12:13;13.10;;;9.20;;
33285;SDS011;19656;50.096;20.014;2022-09-27T22:17:16;16.20;;;9.80;;
33285;SDS011;19656;50.096;20.014;2022-09-27T22:22:19;13.30;;;8.80;;
33285;SDS011;19656;50.096;20.014;2022-09-27T22:27:22;14.20;;;9.70;;
33285;SDS011;19656;50.096;20.014;2022-09-27T22:32:25;16.40;;;10.10;;
33285;SDS011;19656;50.096;20.014;2022-09-27T22:37:28;15.90;;;10.60;;
33285;SDS011;19656;50.096;20.014;2022-09-27T22:42:31;15.50;;;9.90;;
33285;SDS011;19656;50.096;20.014;2022-09-27T22:47:34;14.30;;;9.90;;
33285;SDS011;19656;50.096;20.014;2022-09-27T22:52:37;17.00;;;10.10;;
33285;SDS011;19656;50.096;20.014;2022-09-27T22:57:40;15.10;;;11.30;;
33285;SDS011;19656;50.096;20.014;2022-09-27T23:02:43;17.30;;;10.10;;
33285;SDS011;19656;50.096;20.014;2022-09-27T23:07:46;16.60;;;10.70;;
33285;SDS011;19656;50.096;20.014;2022-09-27T23:12:53;14.70;;;10.50;;
33285;SDS011;19656;50.096;20.014;2022-09-27T23:17:56;16.20;;;10.80;;
33285;SDS011;19656;50.096;20.014;2022-09-27T23:22:59;17.10;;;11.30;;
33285;SDS011;19656;50.096;20.014;2022-09-27T23:28:02;14.20;;;10.00;;
33285;SDS011;19656;50.096;20.014;2022-09-27T23:33:05;16.60;;;9.80;;
33285;SDS011;19656;50.096;20.014;2022-09-27T23:38:09;14.40;;;10.60;;
33285;SDS011;19656;50.096;20.014;2022-09-27T23:43:12;17.10;;;11.20;;
33285;SDS011;19656;50.096;20.014;2022-09-27T23:48:15;18.80;;;10.90;;
33285;SDS011;19656;50.096;20.014;2022-09-27T23:53:19;17.30;;;10.60;;
33285;SDS011;19656;50.096;20.014;2022-09-27T23:58:23;14.40;;;9.70;;
